sensor_id;sensor_type;location;lat;lon;timestamp;pressure;altitude;pressure_sealevel;temperature;humidity
28448;BME280;15675;52.870;-1.416;2023-03-14T00:00:37;98198.59;;;7.09;100.00
28448;BME280;15675;52.870;-1.416;2023-03-14T00:03:03;98197.44;;;7.22;100.00
28448;BME280;15675;52.870;-1.416;2023-03-14T00:05:29;98197.84;;;7.43;100.00
28448;BME280;15675;52.870;-1.416;2023-03-14T00:07:54;98200.56;;;7.35;100.00
28448;BME280;15675;52.870;-1.416;2023-03-14T00:10:20;98217.28;;;7.20;100.00
28448;BME280;15675;52.870;-1.416;2023-03-14T00:12:46;98199.84;;;7.30;100.00
28448;BME280;15675;52.870;-1.416;2023-03-14T00:15:12;98218.34;;;7.12;100.00
28448;BME280;15675;52.870;-1.416;2023-03-14T00:17:38;98221.31;;;7.32;100.00
28448;BME280;15675;52.870;-1.416;2023-03-14T00:20:05;98233.44;;;7.29;100.00
28448;BME280;15675;52.870;-1.416;2023-03-14T00:22:35;98227.22;;;7.37;100.00
28448;BME280;15675;52.870;-1.416;2023-03-14T00:25:01;98235.41;;;7.17;100.00
28448;BME280;15675;52.870;-1.416;2023-03-14T00:27:27;98244.56;;;7.31;100.00
28448;BME280;15675;52.870;-1.416;2023-03-14T00:29:53;98248.06;;;7.28;100.00
28448;BME280;15675;52.870;-1.416;2023-03-14T00:32:18;98255.06;;;7.23;100.00
28448;BME280;15675;52.870;-1.416;2023-03-14T00:34:44;98256.41;;;7.39;100.00
28448;BME280;15675;52.870;-1.416;2023-03-14T00:37:09;98243.41;;;7.44;100.00
28448;BME280;15675;52.870;-1.416;2023-03-14T00:39:35;98262.66;;;7.29;100.00
28448;BME280;15675;52.870;-1.416;2023-03-14T00:42:00;98258.16;;;7.00;100.00
28448;BME280;15675;52.870;-1.416;2023-03-14T00:44:26;98266.78;;;6.97;100.00
28448;BME280;15675;52.870;-1.416;2023-03-14T00:46:51;98283.94;;;6.98;100.00
28448;BME280;15675;52.870;-1.416;2023-03-14T00:49:17;98291.44;;;7.11;100.00
28448;BME280;15675;52.870;-1.416;2023-03-14T00:51:42;98303.69;;;6.99;100.00
28448;BME280;15675;52.870;-1.416;2023-03-14T00:54:08;98308.16;;;7.33;100.00
28448;BME280;15675;52.870;-1.416;2023-03-14T00:56:33;98325.13;;;7.45;100.00
28448;BME280;15675;52.870;-1.416;2023-03-14T00:58:59;98342.16;;;7.52;100.00
28448;BME280;15675;52.870;-1.416;2023-03-14T01:01:24;98351.47;;;7.19;100.00
28448;BME280;15675;52.870;-1.416;2023-03-14T01:03:54;98353.81;;;6.87;100.00
28448;BME280;15675;52.870;-1.416;2023-03-14T01:06:23;98370.22;;;7.29;100.00
28448;BME280;15675;52.870;-1.416;2023-03-14T01:08:49;98363.28;;;7.31;100.00
28448;BME280;15675;52.870;-1.416;2023-03-14T01:11:37;98375.47;;;7.22;100.00
28448;BME280;15675;52.870;-1.416;2023-03-14T01:14:02;98373.91;;;6.70;100.00
28448;BME280;15675;52.870;-1.416;2023-03-14T01:16:30;98387.34;;;6.36;100.00
28448;BME280;15675;52.870;-1.416;2023-03-14T01:18:56;98396.75;;;6.38;100.00
28448;BME280;15675;52.870;-1.416;2023-03-14T01:21:24;98400.31;;;6.30;100.00
28448;BME280;15675;52.870;-1.416;2023-03-14T01:23:51;98398.53;;;6.35;100.00
28448;BME280;15675;52.870;-1.416;2023-03-14T01:26:19;98411.88;;;6.04;100.00
28448;BME280;15675;52.870;-1.416;2023-03-14T01:28:45;98413.75;;;5.90;100.00
28448;BME280;15675;52.870;-1.416;2023-03-14T01:31:12;98416.22;;;6.00;100.00
28448;BME280;15675;52.870;-1.416;2023-03-14T01:33:38;98425.38;;;5.56;100.00
28448;BME280;15675;52.870;-1.416;2023-03-14T01:36:04;98434.81;;;5.54;100.00
28448;BME280;15675;52.870;-1.416;2023-03-14T01:38:30;98440.81;;;5.56;100.00
28448;BME280;15675;52.870;-1.416;2023-03-14T01:40:57;98446.22;;;5.34;100.00
28448;BME280;15675;52.870;-1.416;2023-03-14T01:43:23;98447.75;;;5.48;100.00
28448;BME280;15675;52.870;-1.416;2023-03-14T01:48:34;98459.78;;;5.47;100.00
28448;BME280;15675;52.870;-1.416;2023-03-14T01:51:01;98460.78;;;5.32;100.00
28448;BME280;15675;52.870;-1.416;2023-03-14T01:53:27;98480.53;;;5.32;100.00
28448;BME280;15675;52.870;-1.416;2023-03-14T01:55:55;98483.81;;;5.45;100.00
28448;BME280;15675;52.870;-1.416;2023-03-14T01:58:23;98493.50;;;5.21;100.00
28448;BME280;15675;52.870;-1.416;2023-03-14T02:00:50;98499.59;;;5.11;100.00
28448;BME280;15675;52.870;-1.416;2023-03-14T02:03:17;98510.88;;;4.93;100.00
28448;BME280;15675;52.870;-1.416;2023-03-14T02:05:46;98516.09;;;4.87;100.00
28448;BME280;15675;52.870;-1.416;2023-03-14T02:08:18;98514.16;;;5.09;100.00
28448;BME280;15675;52.870;-1.416;2023-03-14T02:10:47;98524.38;;;5.19;100.00
28448;BME280;15675;52.870;-1.416;2023-03-14T02:13:15;98528.00;;;4.95;100.00
28448;BME280;15675;52.870;-1.416;2023-03-14T02:15:42;98525.38;;;5.05;100.00
28448;BME280;15675;52.870;-1.416;2023-03-14T02:18:08;98531.19;;;5.24;100.00
28448;BME280;15675;52.870;-1.416;2023-03-14T02:23:01;98535.47;;;5.25;100.00
28448;BME280;15675;52.870;-1.416;2023-03-14T02:27:55;98539.84;;;5.15;100.00
28448;BME280;15675;52.870;-1.416;2023-03-14T02:30:23;98537.09;;;5.33;100.00
28448;BME280;15675;52.870;-1.416;2023-03-14T02:32:56;98555.16;;;5.26;100.00
28448;BME280;15675;52.870;-1.416;2023-03-14T02:35:27;98559.72;;;4.93;100.00
28448;BME280;15675;52.870;-1.416;2023-03-14T02:38:15;98568.13;;;5.16;100.00
28448;BME280;15675;52.870;-1.416;2023-03-14T02:40:42;98582.03;;;4.92;100.00
28448;BME280;15675;52.870;-1.416;2023-03-14T02:43:08;98584.53;;;5.00;100.00
28448;BME280;15675;52.870;-1.416;2023-03-14T02:45:44;98589.66;;;5.05;100.00
28448;BME280;15675;52.870;-1.416;2023-03-14T02:48:16;98599.88;;;5.12;100.00
28448;BME280;15675;52.870;-1.416;2023-03-14T02:50:45;98612.06;;;4.84;100.00
28448;BME280;15675;52.870;-1.416;2023-03-14T02:53:13;98616.31;;;4.90;100.00
28448;BME280;15675;52.870;-1.416;2023-03-14T02:55:45;98630.13;;;4.78;100.00
28448;BME280;15675;52.870;-1.416;2023-03-14T02:58:10;98636.00;;;4.97;100.00
28448;BME280;15675;52.870;-1.416;2023-03-14T03:00:36;98652.34;;;4.88;100.00
28448;BME280;15675;52.870;-1.416;2023-03-14T03:03:01;98661.88;;;4.69;100.00
28448;BME280;15675;52.870;-1.416;2023-03-14T03:05:27;98662.50;;;5.05;100.00
28448;BME280;15675;52.870;-1.416;2023-03-14T03:07:53;98669.06;;;5.49;100.00
28448;BME280;15675;52.870;-1.416;2023-03-14T03:10:18;98678.72;;;5.18;100.00
28448;BME280;15675;52.870;-1.416;2023-03-14T03:12:44;98682.22;;;5.08;100.00
28448;BME280;15675;52.870;-1.416;2023-03-14T03:15:09;98694.97;;;5.20;100.00
28448;BME280;15675;52.870;-1.416;2023-03-14T03:17:35;98692.44;;;5.22;100.00
28448;BME280;15675;52.870;-1.416;2023-03-14T03:20:01;98709.59;;;5.18;100.00
28448;BME280;15675;52.870;-1.416;2023-03-14T03:22:26;98707.81;;;5.29;100.00
28448;BME280;15675;52.870;-1.416;2023-03-14T03:24:52;98704.38;;;5.30;100.00
28448;BME280;15675;52.870;-1.416;2023-03-14T03:27:17;98701.88;;;5.18;100.00
28448;BME280;15675;52.870;-1.416;2023-03-14T03:29:43;98706.88;;;5.40;100.00
28448;BME280;15675;52.870;-1.416;2023-03-14T03:32:08;98711.03;;;5.58;100.00
28448;BME280;15675;52.870;-1.416;2023-03-14T03:34:34;98718.53;;;5.82;100.00
28448;BME280;15675;52.870;-1.416;2023-03-14T03:37:00;98727.75;;;6.10;100.00
28448;BME280;15675;52.870;-1.416;2023-03-14T03:39:25;98732.06;;;6.11;100.00
28448;BME280;15675;52.870;-1.416;2023-03-14T03:41:51;98736.69;;;5.65;100.00
28448;BME280;15675;52.870;-1.416;2023-03-14T03:44:16;98736.50;;;5.88;100.00
28448;BME280;15675;52.870;-1.416;2023-03-14T03:46:42;98742.75;;;5.60;100.00
28448;BME280;15675;52.870;-1.416;2023-03-14T03:49:08;98761.66;;;5.56;100.00
28448;BME280;15675;52.870;-1.416;2023-03-14T03:51:34;98759.28;;;5.26;100.00
28448;BME280;15675;52.870;-1.416;2023-03-14T03:53:59;98771.22;;;5.36;100.00
28448;BME280;15675;52.870;-1.416;2023-03-14T03:56:24;98774.84;;;4.97;100.00
28448;BME280;15675;52.870;-1.416;2023-03-14T03:58:50;98786.03;;;4.90;100.00
28448;BME280;15675;52.870;-1.416;2023-03-14T04:01:15;98790.97;;;5.30;100.00
28448;BME280;15675;52.870;-1.416;2023-03-14T04:03:41;98806.50;;;5.17;100.00
28448;BME280;15675;52.870;-1.416;2023-03-14T04:06:10;98820.28;;;4.96;100.00
28448;BME280;15675;52.870;-1.416;2023-03-14T04:08:36;98827.22;;;4.59;100.00
28448;BME280;15675;52.870;-1.416;2023-03-14T04:11:02;98831.50;;;4.64;100.00
28448;BME280;15675;52.870;-1.416;2023-03-14T04:13:28;98841.66;;;5.12;100.00
28448;BME280;15675;52.870;-1.416;2023-03-14T04:15:55;98854.63;;;4.84;100.00
28448;BME280;15675;52.870;-1.416;2023-03-14T04:18:21;98862.38;;;4.55;100.00
28448;BME280;15675;52.870;-1.416;2023-03-14T04:20:54;98882.06;;;4.47;100.00
28448;BME280;15675;52.870;-1.416;2023-03-14T04:23:21;98890.59;;;4.78;100.00
28448;BME280;15675;52.870;-1.416;2023-03-14T04:25:53;98892.28;;;4.89;100.00
28448;BME280;15675;52.870;-1.416;2023-03-14T04:28:19;98907.75;;;4.79;100.00
28448;BME280;15675;52.870;-1.416;2023-03-14T04:30:44;98914.63;;;4.53;100.00
28448;BME280;15675;52.870;-1.416;2023-03-14T04:33:10;98931.72;;;4.78;100.00
28448;BME280;15675;52.870;-1.416;2023-03-14T04:35:38;98940.31;;;4.31;100.00
28448;BME280;15675;52.870;-1.416;2023-03-14T04:38:03;98948.03;;;4.70;100.00
28448;BME280;15675;52.870;-1.416;2023-03-14T04:40:29;98952.31;;;4.63;100.00
28448;BME280;15675;52.870;-1.416;2023-03-14T04:42:54;98961.75;;;4.38;100.00
28448;BME280;15675;52.870;-1.416;2023-03-14T04:45:20;98971.13;;;4.36;100.00
28448;BME280;15675;52.870;-1.416;2023-03-14T04:47:45;98972.84;;;4.43;100.00
28448;BME280;15675;52.870;-1.416;2023-03-14T04:50:11;98974.56;;;4.48;100.00
28448;BME280;15675;52.870;-1.416;2023-03-14T04:52:36;98966.88;;;4.62;100.00
28448;BME280;15675;52.870;-1.416;2023-03-14T04:55:02;98984.03;;;4.62;100.00
28448;BME280;15675;52.870;-1.416;2023-03-14T04:57:28;99007.03;;;4.02;100.00
28448;BME280;15675;52.870;-1.416;2023-03-14T04:59:54;99001.94;;;4.19;100.00
28448;BME280;15675;52.870;-1.416;2023-03-14T05:02:19;99022.47;;;4.06;100.00
28448;BME280;15675;52.870;-1.416;2023-03-14T05:04:45;99029.00;;;3.39;100.00
28448;BME280;15675;52.870;-1.416;2023-03-14T05:07:10;99038.97;;;2.99;100.00
28448;BME280;15675;52.870;-1.416;2023-03-14T05:09:36;99045.94;;;3.13;100.00
28448;BME280;15675;52.870;-1.416;2023-03-14T05:12:02;99050.38;;;3.41;100.00
28448;BME280;15675;52.870;-1.416;2023-03-14T05:14:27;99059.72;;;3.30;100.00
28448;BME280;15675;52.870;-1.416;2023-03-14T05:16:53;99073.91;;;2.88;100.00
28448;BME280;15675;52.870;-1.416;2023-03-14T05:19:18;99077.63;;;3.22;100.00
28448;BME280;15675;52.870;-1.416;2023-03-14T05:21:44;99094.03;;;3.48;100.00
28448;BME280;15675;52.870;-1.416;2023-03-14T05:24:09;99102.03;;;2.77;100.00
28448;BME280;15675;52.870;-1.416;2023-03-14T05:26:35;99117.09;;;2.49;100.00
28448;BME280;15675;52.870;-1.416;2023-03-14T05:29:00;99124.00;;;2.55;100.00
28448;BME280;15675;52.870;-1.416;2023-03-14T05:31:26;99132.66;;;2.66;100.00
28448;BME280;15675;52.870;-1.416;2023-03-14T05:33:51;99136.50;;;3.10;100.00
28448;BME280;15675;52.870;-1.416;2023-03-14T05:36:17;99148.63;;;3.28;100.00
28448;BME280;15675;52.870;-1.416;2023-03-14T05:38:43;99152.78;;;3.14;100.00
28448;BME280;15675;52.870;-1.416;2023-03-14T05:41:08;99162.97;;;3.07;100.00
28448;BME280;15675;52.870;-1.416;2023-03-14T05:43:34;99169.94;;;3.21;100.00
28448;BME280;15675;52.870;-1.416;2023-03-14T05:46:00;99166.56;;;3.26;100.00
28448;BME280;15675;52.870;-1.416;2023-03-14T05:48:25;99172.56;;;3.28;100.00
28448;BME280;15675;52.870;-1.416;2023-03-14T05:50:57;99195.59;;;3.22;100.00
28448;BME280;15675;52.870;-1.416;2023-03-14T05:53:25;99195.84;;;3.55;100.00
28448;BME280;15675;52.870;-1.416;2023-03-14T05:55:54;99220.78;;;3.67;100.00
28448;BME280;15675;52.870;-1.416;2023-03-14T05:58:20;99215.75;;;3.80;100.00
28448;BME280;15675;52.870;-1.416;2023-03-14T06:00:46;99224.03;;;3.50;100.00
28448;BME280;15675;52.870;-1.416;2023-03-14T06:03:12;99231.81;;;3.56;100.00
28448;BME280;15675;52.870;-1.416;2023-03-14T06:05:39;99232.09;;;3.95;100.00
28448;BME280;15675;52.870;-1.416;2023-03-14T06:08:05;99246.63;;;3.93;100.00
28448;BME280;15675;52.870;-1.416;2023-03-14T06:10:30;99246.56;;;3.84;100.00
28448;BME280;15675;52.870;-1.416;2023-03-14T06:12:56;99246.75;;;4.08;100.00
28448;BME280;15675;52.870;-1.416;2023-03-14T06:15:21;99267.47;;;4.36;100.00
28448;BME280;15675;52.870;-1.416;2023-03-14T06:17:47;99270.06;;;4.42;100.00
28448;BME280;15675;52.870;-1.416;2023-03-14T06:20:13;99287.91;;;4.18;100.00
28448;BME280;15675;52.870;-1.416;2023-03-14T06:22:38;99294.72;;;4.17;100.00
28448;BME280;15675;52.870;-1.416;2023-03-14T06:25:06;99301.44;;;3.95;100.00
28448;BME280;15675;52.870;-1.416;2023-03-14T06:27:33;99310.84;;;3.96;100.00
28448;BME280;15675;52.870;-1.416;2023-03-14T06:29:58;99340.00;;;4.01;100.00
28448;BME280;15675;52.870;-1.416;2023-03-14T06:32:24;99343.38;;;3.97;100.00
28448;BME280;15675;52.870;-1.416;2023-03-14T06:34:50;99356.00;;;3.72;100.00
28448;BME280;15675;52.870;-1.416;2023-03-14T06:37:16;99366.25;;;3.72;100.00
28448;BME280;15675;52.870;-1.416;2023-03-14T06:39:41;99371.47;;;3.82;100.00
28448;BME280;15675;52.870;-1.416;2023-03-14T06:42:09;99374.03;;;3.82;100.00
28448;BME280;15675;52.870;-1.416;2023-03-14T06:44:34;99385.38;;;4.01;100.00
28448;BME280;15675;52.870;-1.416;2023-03-14T06:47:00;99384.84;;;4.43;100.00
28448;BME280;15675;52.870;-1.416;2023-03-14T06:49:26;99396.00;;;4.44;100.00
28448;BME280;15675;52.870;-1.416;2023-03-14T06:51:51;99397.59;;;4.29;100.00
28448;BME280;15675;52.870;-1.416;2023-03-14T06:54:17;99394.31;;;4.49;100.00
28448;BME280;15675;52.870;-1.416;2023-03-14T06:56:43;99409.66;;;4.40;100.00
28448;BME280;15675;52.870;-1.416;2023-03-14T06:59:08;99407.28;;;4.66;100.00
28448;BME280;15675;52.870;-1.416;2023-03-14T07:01:34;99403.81;;;4.61;100.00
28448;BME280;15675;52.870;-1.416;2023-03-14T07:04:00;99408.38;;;5.02;100.00
28448;BME280;15675;52.870;-1.416;2023-03-14T07:06:26;99428.09;;;5.03;100.00
28448;BME280;15675;52.870;-1.416;2023-03-14T07:08:54;99437.28;;;4.72;100.00
28448;BME280;15675;52.870;-1.416;2023-03-14T07:11:20;99455.78;;;4.26;100.00
28448;BME280;15675;52.870;-1.416;2023-03-14T07:13:46;99464.38;;;4.28;100.00
28448;BME280;15675;52.870;-1.416;2023-03-14T07:16:11;99461.91;;;4.40;100.00
28448;BME280;15675;52.870;-1.416;2023-03-14T07:18:37;99471.31;;;4.38;100.00
28448;BME280;15675;52.870;-1.416;2023-03-14T07:21:04;99486.00;;;4.53;100.00
28448;BME280;15675;52.870;-1.416;2023-03-14T07:23:30;99496.00;;;4.21;100.00
28448;BME280;15675;52.870;-1.416;2023-03-14T07:25:56;99510.25;;;3.94;100.00
28448;BME280;15675;52.870;-1.416;2023-03-14T07:28:21;99518.81;;;3.94;100.00
28448;BME280;15675;52.870;-1.416;2023-03-14T07:30:48;99523.88;;;3.87;100.00
28448;BME280;15675;52.870;-1.416;2023-03-14T07:33:14;99524.81;;;3.93;100.00
28448;BME280;15675;52.870;-1.416;2023-03-14T07:35:40;99534.03;;;3.79;100.00
28448;BME280;15675;52.870;-1.416;2023-03-14T07:38:05;99547.88;;;3.92;100.00
28448;BME280;15675;52.870;-1.416;2023-03-14T07:40:31;99563.13;;;3.79;100.00
28448;BME280;15675;52.870;-1.416;2023-03-14T07:42:56;99570.72;;;3.70;100.00
28448;BME280;15675;52.870;-1.416;2023-03-14T07:45:22;99566.47;;;3.71;100.00
28448;BME280;15675;52.870;-1.416;2023-03-14T07:47:48;99569.19;;;3.85;100.00
28448;BME280;15675;52.870;-1.416;2023-03-14T07:50:13;99581.19;;;3.87;100.00
28448;BME280;15675;52.870;-1.416;2023-03-14T07:52:39;99581.28;;;3.93;100.00
28448;BME280;15675;52.870;-1.416;2023-03-14T07:55:05;99590.84;;;4.05;100.00
28448;BME280;15675;52.870;-1.416;2023-03-14T07:57:31;99595.84;;;3.94;100.00
28448;BME280;15675;52.870;-1.416;2023-03-14T07:59:56;99596.84;;;4.06;100.00
28448;BME280;15675;52.870;-1.416;2023-03-14T08:02:22;99600.44;;;4.22;100.00
28448;BME280;15675;52.870;-1.416;2023-03-14T08:04:49;99602.19;;;4.24;100.00
28448;BME280;15675;52.870;-1.416;2023-03-14T08:07:15;99598.97;;;4.41;100.00
28448;BME280;15675;52.870;-1.416;2023-03-14T08:09:41;99614.34;;;4.36;100.00
28448;BME280;15675;52.870;-1.416;2023-03-14T08:12:07;99627.22;;;4.39;100.00
28448;BME280;15675;52.870;-1.416;2023-03-14T08:14:32;99632.97;;;4.18;100.00
28448;BME280;15675;52.870;-1.416;2023-03-14T08:16:58;99644.78;;;4.05;100.00
28448;BME280;15675;52.870;-1.416;2023-03-14T08:19:24;99643.94;;;4.06;100.00
28448;BME280;15675;52.870;-1.416;2023-03-14T08:21:49;99666.81;;;3.88;100.00
28448;BME280;15675;52.870;-1.416;2023-03-14T08:24:15;99670.53;;;4.11;100.00
28448;BME280;15675;52.870;-1.416;2023-03-14T08:26:41;99668.09;;;4.19;100.00
28448;BME280;15675;52.870;-1.416;2023-03-14T08:29:06;99673.53;;;4.45;100.00
28448;BME280;15675;52.870;-1.416;2023-03-14T08:31:34;99687.03;;;4.29;100.00
28448;BME280;15675;52.870;-1.416;2023-03-14T08:34:00;99688.06;;;4.42;100.00
28448;BME280;15675;52.870;-1.416;2023-03-14T08:36:27;99696.66;;;4.44;100.00
28448;BME280;15675;52.870;-1.416;2023-03-14T08:38:53;99704.38;;;4.45;100.00
28448;BME280;15675;52.870;-1.416;2023-03-14T08:41:18;99706.13;;;4.48;100.00
28448;BME280;15675;52.870;-1.416;2023-03-14T08:43:46;99722.97;;;4.26;100.00
28448;BME280;15675;52.870;-1.416;2023-03-14T08:46:12;99728.13;;;4.29;100.00
28448;BME280;15675;52.870;-1.416;2023-03-14T08:48:37;99729.66;;;4.82;100.00
28448;BME280;15675;52.870;-1.416;2023-03-14T08:51:09;99738.19;;;4.79;100.00
28448;BME280;15675;52.870;-1.416;2023-03-14T08:53:36;99755.41;;;4.83;100.00
28448;BME280;15675;52.870;-1.416;2023-03-14T08:56:02;99760.13;;;4.49;100.00
28448;BME280;15675;52.870;-1.416;2023-03-14T08:58:29;99765.75;;;4.90;100.00
28448;BME280;15675;52.870;-1.416;2023-03-14T09:00:54;99760.84;;;5.13;100.00
28448;BME280;15675;52.870;-1.416;2023-03-14T09:03:20;99762.75;;;5.29;100.00
28448;BME280;15675;52.870;-1.416;2023-03-14T09:05:52;99783.22;;;5.20;100.00
28448;BME280;15675;52.870;-1.416;2023-03-14T09:08:17;99785.41;;;4.84;100.00
28448;BME280;15675;52.870;-1.416;2023-03-14T09:10:43;99788.72;;;4.77;100.00
28448;BME280;15675;52.870;-1.416;2023-03-14T09:13:08;99788.03;;;4.88;100.00
28448;BME280;15675;52.870;-1.416;2023-03-14T09:15:34;99806.94;;;4.94;100.00
28448;BME280;15675;52.870;-1.416;2023-03-14T09:18:00;99803.13;;;5.35;100.00
28448;BME280;15675;52.870;-1.416;2023-03-14T09:20:25;99818.44;;;5.26;100.00
28448;BME280;15675;52.870;-1.416;2023-03-14T09:22:51;99817.19;;;4.90;100.00
28448;BME280;15675;52.870;-1.416;2023-03-14T09:25:17;99833.31;;;4.76;100.00
28448;BME280;15675;52.870;-1.416;2023-03-14T09:27:42;99843.56;;;4.73;100.00
28448;BME280;15675;52.870;-1.416;2023-03-14T09:30:08;99840.78;;;5.27;100.00
28448;BME280;15675;52.870;-1.416;2023-03-14T09:32:34;99841.13;;;4.86;100.00
28448;BME280;15675;52.870;-1.416;2023-03-14T09:34:59;99850.84;;;5.08;100.00
28448;BME280;15675;52.870;-1.416;2023-03-14T09:37:25;99844.16;;;5.23;100.00
28448;BME280;15675;52.870;-1.416;2023-03-14T09:39:51;99847.28;;;4.98;100.00
28448;BME280;15675;52.870;-1.416;2023-03-14T09:42:18;99859.03;;;4.78;100.00
28448;BME280;15675;52.870;-1.416;2023-03-14T09:47:19;99872.41;;;5.16;100.00
28448;BME280;15675;52.870;-1.416;2023-03-14T09:49:45;99880.94;;;5.15;97.69
28448;BME280;15675;52.870;-1.416;2023-03-14T09:52:15;99880.94;;;5.15;98.91
28448;BME280;15675;52.870;-1.416;2023-03-14T09:57:16;99900.50;;;5.03;98.95
28448;BME280;15675;52.870;-1.416;2023-03-14T09:59:44;99908.78;;;5.46;100.00
28448;BME280;15675;52.870;-1.416;2023-03-14T10:02:22;99917.69;;;5.05;98.49
28448;BME280;15675;52.870;-1.416;2023-03-14T10:04:50;99916.31;;;5.30;99.57
28448;BME280;15675;52.870;-1.416;2023-03-14T10:07:31;99928.06;;;5.82;100.00
28448;BME280;15675;52.870;-1.416;2023-03-14T10:09:57;99933.78;;;5.58;99.41
28448;BME280;15675;52.870;-1.416;2023-03-14T10:12:34;99937.06;;;5.44;98.95
28448;BME280;15675;52.870;-1.416;2023-03-14T10:15:27;99940.72;;;5.62;98.72
28448;BME280;15675;52.870;-1.416;2023-03-14T10:17:55;99939.06;;;5.70;97.53
28448;BME280;15675;52.870;-1.416;2023-03-14T10:20:38;99951.91;;;5.65;97.55
28448;BME280;15675;52.870;-1.416;2023-03-14T10:25:34;99943.72;;;5.97;93.87
28448;BME280;15675;52.870;-1.416;2023-03-14T10:28:00;99957.47;;;6.01;93.49
28448;BME280;15675;52.870;-1.416;2023-03-14T10:30:45;99951.53;;;6.10;91.26
28448;BME280;15675;52.870;-1.416;2023-03-14T10:35:46;99974.06;;;5.52;82.78
28448;BME280;15675;52.870;-1.416;2023-03-14T10:38:17;99974.56;;;5.96;82.58
28448;BME280;15675;52.870;-1.416;2023-03-14T10:40:48;99986.47;;;5.86;82.89
28448;BME280;15675;52.870;-1.416;2023-03-14T10:43:19;99978.81;;;5.94;81.48
28448;BME280;15675;52.870;-1.416;2023-03-14T10:45:53;99977.28;;;6.08;84.28
28448;BME280;15675;52.870;-1.416;2023-03-14T10:48:34;99993.75;;;6.22;85.86
28448;BME280;15675;52.870;-1.416;2023-03-14T10:51:19;100001.66;;;6.43;84.55
28448;BME280;15675;52.870;-1.416;2023-03-14T10:56:18;99994.47;;;6.06;80.15
28448;BME280;15675;52.870;-1.416;2023-03-14T10:58:46;99994.09;;;6.60;79.38
28448;BME280;15675;52.870;-1.416;2023-03-14T11:15:02;100005.69;;;7.14;75.07
28448;BME280;15675;52.870;-1.416;2023-03-14T11:20:37;100002.75;;;6.65;71.22
28448;BME280;15675;52.870;-1.416;2023-03-14T11:23:16;100017.53;;;6.84;70.33
28448;BME280;15675;52.870;-1.416;2023-03-14T11:28:38;100022.47;;;6.60;66.51
28448;BME280;15675;52.870;-1.416;2023-03-14T11:31:23;100026.75;;;6.56;68.21
28448;BME280;15675;52.870;-1.416;2023-03-14T11:36:48;100031.88;;;6.53;65.52
28448;BME280;15675;52.870;-1.416;2023-03-14T11:39:19;100043.88;;;6.51;65.10
28448;BME280;15675;52.870;-1.416;2023-03-14T11:41:57;100049.94;;;6.56;63.87
28448;BME280;15675;52.870;-1.416;2023-03-14T11:44:30;100054.44;;;6.76;63.17
28448;BME280;15675;52.870;-1.416;2023-03-14T11:47:11;100036.47;;;6.91;62.42
28448;BME280;15675;52.870;-1.416;2023-03-14T11:49:50;100038.50;;;7.35;61.76
28448;BME280;15675;52.870;-1.416;2023-03-14T11:54:58;100026.56;;;7.48;64.88
28448;BME280;15675;52.870;-1.416;2023-03-14T11:57:26;100029.41;;;8.22;66.62
28448;BME280;15675;52.870;-1.416;2023-03-14T12:02:50;100035.22;;;7.64;63.63
28448;BME280;15675;52.870;-1.416;2023-03-14T12:05:39;100036.72;;;7.23;63.03
28448;BME280;15675;52.870;-1.416;2023-03-14T12:13:14;100031.50;;;7.14;63.62
28448;BME280;15675;52.870;-1.416;2023-03-14T12:15:46;100048.66;;;7.09;63.46
28448;BME280;15675;52.870;-1.416;2023-03-14T12:18:25;100060.47;;;6.79;63.06
28448;BME280;15675;52.870;-1.416;2023-03-14T12:20:54;100068.72;;;6.43;62.91
28448;BME280;15675;52.870;-1.416;2023-03-14T12:23:21;100090.84;;;6.24;64.39
28448;BME280;15675;52.870;-1.416;2023-03-14T12:25:47;100082.25;;;6.21;67.84
28448;BME280;15675;52.870;-1.416;2023-03-14T12:28:30;100096.19;;;5.72;70.00
28448;BME280;15675;52.870;-1.416;2023-03-14T12:30:56;100096.59;;;5.40;73.62
28448;BME280;15675;52.870;-1.416;2023-03-14T12:33:28;100114.47;;;4.78;76.67
28448;BME280;15675;52.870;-1.416;2023-03-14T12:36:02;100117.88;;;4.77;80.02
28448;BME280;15675;52.870;-1.416;2023-03-14T12:49:04;100118.03;;;4.87;89.67
28448;BME280;15675;52.870;-1.416;2023-03-14T12:51:38;100119.31;;;5.10;92.35
28448;BME280;15675;52.870;-1.416;2023-03-14T12:57:03;100169.75;;;5.00;93.19
28448;BME280;15675;52.870;-1.416;2023-03-14T12:59:38;100159.34;;;4.48;95.67
28448;BME280;15675;52.870;-1.416;2023-03-14T13:12:40;100143.91;;;5.46;100.00
28448;BME280;15675;52.870;-1.416;2023-03-14T13:15:29;100143.00;;;6.02;100.00
28448;BME280;15675;52.870;-1.416;2023-03-14T13:18:01;100143.25;;;6.22;100.00
28448;BME280;15675;52.870;-1.416;2023-03-14T13:20:34;100138.03;;;6.16;100.00
28448;BME280;15675;52.870;-1.416;2023-03-14T13:23:00;100139.44;;;6.65;100.00
28448;BME280;15675;52.870;-1.416;2023-03-14T13:25:36;100141.84;;;6.49;99.65
28448;BME280;15675;52.870;-1.416;2023-03-14T13:28:02;100133.25;;;6.50;95.61
28448;BME280;15675;52.870;-1.416;2023-03-14T13:30:38;100141.88;;;6.54;94.28
28448;BME280;15675;52.870;-1.416;2023-03-14T13:33:05;100135.59;;;6.27;91.71
28448;BME280;15675;52.870;-1.416;2023-03-14T13:35:40;100124.19;;;6.91;92.09
28448;BME280;15675;52.870;-1.416;2023-03-14T13:38:16;100127.91;;;7.22;89.76
28448;BME280;15675;52.870;-1.416;2023-03-14T13:40:43;100130.31;;;7.02;86.97
28448;BME280;15675;52.870;-1.416;2023-03-14T13:43:21;100119.28;;;7.19;84.11
28448;BME280;15675;52.870;-1.416;2023-03-14T13:48:25;100123.19;;;7.84;79.29
28448;BME280;15675;52.870;-1.416;2023-03-14T13:50:55;100117.91;;;7.69;78.00
28448;BME280;15675;52.870;-1.416;2023-03-14T13:53:22;100111.09;;;7.77;75.69
28448;BME280;15675;52.870;-1.416;2023-03-14T13:55:49;100105.03;;;7.78;72.37
28448;BME280;15675;52.870;-1.416;2023-03-14T13:58:29;100111.91;;;7.73;69.03
28448;BME280;15675;52.870;-1.416;2023-03-14T14:03:51;100098.31;;;8.12;68.70
28448;BME280;15675;52.870;-1.416;2023-03-14T14:08:46;100109.63;;;8.41;68.36
28448;BME280;15675;52.870;-1.416;2023-03-14T14:11:22;100129.28;;;7.97;67.26
28448;BME280;15675;52.870;-1.416;2023-03-14T14:13:49;100136.53;;;7.24;68.32
28448;BME280;15675;52.870;-1.416;2023-03-14T14:16:16;100144.38;;;6.45;75.11
28448;BME280;15675;52.870;-1.416;2023-03-14T14:18:45;100153.69;;;6.32;78.19